sensor_id;sensor_type;location;lat;lon;timestamp;P1;durP1;ratioP1;P2;durP2;ratioP2
40433;SDS011;26146;51.114;5.654;2022-09-09T00:03:17;5.95;;;1.20;;
40433;SDS011;26146;51.114;5.654;2022-09-09T00:07:24;6.30;;;1.13;;
40433;SDS011;26146;51.114;5.654;2022-09-09T00:11:28;4.90;;;1.20;;
40433;SDS011;26146;51.114;5.654;2022-09-09T00:15:58;4.57;;;0.90;;
40433;SDS011;26146;51.114;5.654;2022-09-09T00:24:51;7.03;;;1.20;;
40433;SDS011;26146;51.114;5.654;2022-09-09T00:33:11;7.90;;;1.30;;
40433;SDS011;26146;51.114;5.654;2022-09-09T00:37:15;5.72;;;1.08;;
40433;SDS011;26146;51.114;5.654;2022-09-09T00:45:52;4.97;;;1.20;;
40433;SDS011;26146;51.114;5.654;2022-09-09T00:50:02;5.35;;;1.10;;
40433;SDS011;26146;51.114;5.654;2022-09-09T00:54:19;6.32;;;1.10;;
40433;SDS011;26146;51.114;5.654;2022-09-09T00:58:32;7.32;;;1.70;;
40433;SDS011;26146;51.114;5.654;2022-09-09T01:02:39;7.38;;;2.00;;
40433;SDS011;26146;51.114;5.654;2022-09-09T01:06:51;6.55;;;1.85;;
40433;SDS011;26146;51.114;5.654;2022-09-09T01:11:00;8.35;;;1.65;;
40433;SDS011;26146;51.114;5.654;2022-09-09T01:15:07;7.50;;;2.00;;
40433;SDS011;26146;51.114;5.654;2022-09-09T01:19:15;5.88;;;1.40;;
40433;SDS011;26146;51.114;5.654;2022-09-09T01:27:49;4.18;;;1.10;;
40433;SDS011;26146;51.114;5.654;2022-09-09T01:35:59;7.10;;;1.10;;
40433;SDS011;26146;51.114;5.654;2022-09-09T01:40:09;8.68;;;1.20;;
40433;SDS011;26146;51.114;5.654;2022-09-09T01:44:10;8.88;;;1.30;;
40433;SDS011;26146;51.114;5.654;2022-09-09T01:48:12;7.65;;;1.15;;
40433;SDS011;26146;51.114;5.654;2022-09-09T01:52:13;6.85;;;1.10;;
40433;SDS011;26146;51.114;5.654;2022-09-09T02:00:43;8.55;;;1.52;;
40433;SDS011;26146;51.114;5.654;2022-09-09T02:04:52;9.73;;;1.80;;
40433;SDS011;26146;51.114;5.654;2022-09-09T02:08:59;6.22;;;1.33;;
40433;SDS011;26146;51.114;5.654;2022-09-09T02:13:10;5.22;;;1.40;;
40433;SDS011;26146;51.114;5.654;2022-09-09T02:17:13;6.60;;;1.40;;
40433;SDS011;26146;51.114;5.654;2022-09-09T02:21:19;5.90;;;1.50;;
40433;SDS011;26146;51.114;5.654;2022-09-09T02:25:21;7.72;;;1.70;;
40433;SDS011;26146;51.114;5.654;2022-09-09T02:29:26;8.32;;;1.55;;
40433;SDS011;26146;51.114;5.654;2022-09-09T02:33:32;10.43;;;1.80;;
40433;SDS011;26146;51.114;5.654;2022-09-09T02:37:37;8.88;;;1.50;;
40433;SDS011;26146;51.114;5.654;2022-09-09T02:41:40;7.07;;;1.55;;
40433;SDS011;26146;51.114;5.654;2022-09-09T02:45:44;9.30;;;1.95;;
40433;SDS011;26146;51.114;5.654;2022-09-09T02:50:03;8.02;;;1.50;;
40433;SDS011;26146;51.114;5.654;2022-09-09T02:54:17;6.82;;;1.67;;
40433;SDS011;26146;51.114;5.654;2022-09-09T02:58:33;6.20;;;1.60;;
40433;SDS011;26146;51.114;5.654;2022-09-09T03:02:35;9.57;;;1.50;;
40433;SDS011;26146;51.114;5.654;2022-09-09T03:06:36;6.78;;;1.60;;
40433;SDS011;26146;51.114;5.654;2022-09-09T03:10:37;6.45;;;1.42;;
40433;SDS011;26146;51.114;5.654;2022-09-09T03:14:46;8.18;;;1.70;;
40433;SDS011;26146;51.114;5.654;2022-09-09T03:18:47;6.13;;;1.25;;
40433;SDS011;26146;51.114;5.654;2022-09-09T03:22:48;8.80;;;1.67;;
40433;SDS011;26146;51.114;5.654;2022-09-09T03:26:50;7.57;;;1.50;;
40433;SDS011;26146;51.114;5.654;2022-09-09T03:30:51;5.30;;;1.40;;
40433;SDS011;26146;51.114;5.654;2022-09-09T03:34:52;6.78;;;1.40;;
40433;SDS011;26146;51.114;5.654;2022-09-09T03:38:53;10.23;;;1.60;;
40433;SDS011;26146;51.114;5.654;2022-09-09T03:42:55;8.82;;;1.60;;
40433;SDS011;26146;51.114;5.654;2022-09-09T03:46:58;8.32;;;1.55;;
40433;SDS011;26146;51.114;5.654;2022-09-09T03:51:00;9.20;;;1.65;;
40433;SDS011;26146;51.114;5.654;2022-09-09T03:55:02;7.90;;;2.25;;
40433;SDS011;26146;51.114;5.654;2022-09-09T03:59:04;8.68;;;1.85;;
40433;SDS011;26146;51.114;5.654;2022-09-09T04:03:05;8.73;;;1.70;;
40433;SDS011;26146;51.114;5.654;2022-09-09T04:07:08;8.18;;;1.90;;
40433;SDS011;26146;51.114;5.654;2022-09-09T04:11:09;10.27;;;2.00;;
40433;SDS011;26146;51.114;5.654;2022-09-09T04:15:10;8.32;;;1.92;;
40433;SDS011;26146;51.114;5.654;2022-09-09T04:19:11;10.10;;;1.85;;
40433;SDS011;26146;51.114;5.654;2022-09-09T04:23:14;8.75;;;1.80;;
40433;SDS011;26146;51.114;5.654;2022-09-09T04:27:16;11.52;;;1.90;;
40433;SDS011;26146;51.114;5.654;2022-09-09T04:31:20;9.25;;;1.80;;
40433;SDS011;26146;51.114;5.654;2022-09-09T04:35:23;10.35;;;1.90;;
40433;SDS011;26146;51.114;5.654;2022-09-09T04:39:24;8.75;;;1.80;;
40433;SDS011;26146;51.114;5.654;2022-09-09T04:43:27;9.02;;;1.70;;
40433;SDS011;26146;51.114;5.654;2022-09-09T04:47:28;9.52;;;2.10;;
40433;SDS011;26146;51.114;5.654;2022-09-09T04:51:29;9.25;;;1.92;;
40433;SDS011;26146;51.114;5.654;2022-09-09T04:55:31;9.30;;;2.15;;
40433;SDS011;26146;51.114;5.654;2022-09-09T04:59:34;12.25;;;2.30;;
40433;SDS011;26146;51.114;5.654;2022-09-09T05:03:38;12.65;;;2.47;;
40433;SDS011;26146;51.114;5.654;2022-09-09T05:08:02;12.93;;;2.90;;
40433;SDS011;26146;51.114;5.654;2022-09-09T05:12:09;12.93;;;2.75;;
40433;SDS011;26146;51.114;5.654;2022-09-09T05:16:10;10.77;;;2.40;;
40433;SDS011;26146;51.114;5.654;2022-09-09T05:20:13;11.35;;;2.17;;
40433;SDS011;26146;51.114;5.654;2022-09-09T05:24:14;8.40;;;2.35;;
40433;SDS011;26146;51.114;5.654;2022-09-09T05:28:15;9.57;;;1.90;;
40433;SDS011;26146;51.114;5.654;2022-09-09T05:32:19;10.80;;;2.15;;
40433;SDS011;26146;51.114;5.654;2022-09-09T05:36:20;9.05;;;1.73;;
40433;SDS011;26146;51.114;5.654;2022-09-09T05:40:22;9.02;;;1.90;;
40433;SDS011;26146;51.114;5.654;2022-09-09T05:44:23;9.70;;;1.73;;
40433;SDS011;26146;51.114;5.654;2022-09-09T05:48:28;8.38;;;1.80;;
40433;SDS011;26146;51.114;5.654;2022-09-09T05:52:32;7.85;;;1.63;;
40433;SDS011;26146;51.114;5.654;2022-09-09T05:56:33;8.98;;;1.77;;
40433;SDS011;26146;51.114;5.654;2022-09-09T06:00:34;10.32;;;1.70;;
40433;SDS011;26146;51.114;5.654;2022-09-09T06:04:37;9.30;;;1.60;;
40433;SDS011;26146;51.114;5.654;2022-09-09T06:08:39;10.20;;;1.60;;
40433;SDS011;26146;51.114;5.654;2022-09-09T06:12:44;9.80;;;1.48;;
40433;SDS011;26146;51.114;5.654;2022-09-09T06:16:44;10.43;;;1.67;;
40433;SDS011;26146;51.114;5.654;2022-09-09T06:20:56;7.05;;;1.40;;
40433;SDS011;26146;51.114;5.654;2022-09-09T06:24:58;7.15;;;1.30;;
40433;SDS011;26146;51.114;5.654;2022-09-09T06:29:00;5.63;;;1.13;;
40433;SDS011;26146;51.114;5.654;2022-09-09T06:33:04;10.48;;;1.23;;
40433;SDS011;26146;51.114;5.654;2022-09-09T06:37:04;8.93;;;1.58;;
40433;SDS011;26146;51.114;5.654;2022-09-09T06:41:07;8.45;;;1.30;;
40433;SDS011;26146;51.114;5.654;2022-09-09T06:45:09;9.75;;;1.27;;
40433;SDS011;26146;51.114;5.654;2022-09-09T06:49:11;9.57;;;1.20;;
40433;SDS011;26146;51.114;5.654;2022-09-09T06:53:12;7.95;;;1.15;;
40433;SDS011;26146;51.114;5.654;2022-09-09T06:57:16;6.40;;;1.02;;
40433;SDS011;26146;51.114;5.654;2022-09-09T07:01:18;8.07;;;1.10;;
40433;SDS011;26146;51.114;5.654;2022-09-09T07:05:21;9.07;;;1.27;;
40433;SDS011;26146;51.114;5.654;2022-09-09T07:09:22;7.65;;;1.30;;
40433;SDS011;26146;51.114;5.654;2022-09-09T07:13:24;11.95;;;1.30;;
40433;SDS011;26146;51.114;5.654;2022-09-09T07:17:26;9.95;;;1.30;;
40433;SDS011;26146;51.114;5.654;2022-09-09T07:21:29;8.85;;;1.20;;
40433;SDS011;26146;51.114;5.654;2022-09-09T07:25:33;7.07;;;0.98;;
40433;SDS011;26146;51.114;5.654;2022-09-09T07:29:34;6.70;;;1.00;;
40433;SDS011;26146;51.114;5.654;2022-09-09T07:33:35;6.50;;;1.25;;
40433;SDS011;26146;51.114;5.654;2022-09-09T07:37:36;6.53;;;0.98;;
40433;SDS011;26146;51.114;5.654;2022-09-09T07:41:43;7.35;;;0.98;;
40433;SDS011;26146;51.114;5.654;2022-09-09T07:45:45;9.45;;;1.15;;
40433;SDS011;26146;51.114;5.654;2022-09-09T07:49:47;8.65;;;1.17;;
40433;SDS011;26146;51.114;5.654;2022-09-09T07:53:57;6.85;;;0.95;;
40433;SDS011;26146;51.114;5.654;2022-09-09T07:58:03;7.03;;;1.00;;
40433;SDS011;26146;51.114;5.654;2022-09-09T08:02:04;6.43;;;0.93;;
40433;SDS011;26146;51.114;5.654;2022-09-09T08:06:06;9.40;;;1.10;;
40433;SDS011;26146;51.114;5.654;2022-09-09T08:10:08;8.88;;;1.20;;
40433;SDS011;26146;51.114;5.654;2022-09-09T08:14:10;9.85;;;1.25;;
40433;SDS011;26146;51.114;5.654;2022-09-09T08:18:12;8.02;;;1.10;;
40433;SDS011;26146;51.114;5.654;2022-09-09T08:22:13;7.93;;;1.05;;
40433;SDS011;26146;51.114;5.654;2022-09-09T08:26:15;7.03;;;0.90;;
40433;SDS011;26146;51.114;5.654;2022-09-09T08:30:19;9.23;;;0.98;;
40433;SDS011;26146;51.114;5.654;2022-09-09T08:34:21;7.78;;;0.90;;
40433;SDS011;26146;51.114;5.654;2022-09-09T08:38:22;8.27;;;1.00;;
40433;SDS011;26146;51.114;5.654;2022-09-09T08:51:00;9.23;;;0.90;;
40433;SDS011;26146;51.114;5.654;2022-09-09T08:59:13;7.97;;;1.00;;
40433;SDS011;26146;51.114;5.654;2022-09-09T09:03:30;5.95;;;0.60;;
40433;SDS011;26146;51.114;5.654;2022-09-09T09:12:01;9.35;;;1.00;;
40433;SDS011;26146;51.114;5.654;2022-09-09T09:16:23;7.97;;;0.98;;
40433;SDS011;26146;51.114;5.654;2022-09-09T09:20:37;8.88;;;0.90;;
40433;SDS011;26146;51.114;5.654;2022-09-09T09:25:18;5.47;;;0.90;;
40433;SDS011;26146;51.114;5.654;2022-09-09T09:29:19;5.22;;;0.65;;
40433;SDS011;26146;51.114;5.654;2022-09-09T09:33:28;7.40;;;1.17;;
40433;SDS011;26146;51.114;5.654;2022-09-09T09:37:34;10.05;;;1.00;;
40433;SDS011;26146;51.114;5.654;2022-09-09T09:41:53;6.70;;;1.10;;
40433;SDS011;26146;51.114;5.654;2022-09-09T09:45:57;8.37;;;1.07;;
40433;SDS011;26146;51.114;5.654;2022-09-09T09:50:00;7.45;;;0.90;;
40433;SDS011;26146;51.114;5.654;2022-09-09T09:54:04;7.47;;;1.05;;
40433;SDS011;26146;51.114;5.654;2022-09-09T09:58:18;6.63;;;0.80;;
40433;SDS011;26146;51.114;5.654;2022-09-09T10:02:23;7.45;;;0.90;;
40433;SDS011;26146;51.114;5.654;2022-09-09T10:06:30;6.97;;;0.80;;
40433;SDS011;26146;51.114;5.654;2022-09-09T10:19:42;5.88;;;0.73;;
40433;SDS011;26146;51.114;5.654;2022-09-09T10:24:13;6.22;;;0.70;;
40433;SDS011;26146;51.114;5.654;2022-09-09T10:33:12;5.75;;;0.60;;
40433;SDS011;26146;51.114;5.654;2022-09-09T10:41:44;6.65;;;0.80;;
40433;SDS011;26146;51.114;5.654;2022-09-09T10:54:56;5.10;;;0.70;;
40433;SDS011;26146;51.114;5.654;2022-09-09T10:59:10;4.75;;;0.80;;
40433;SDS011;26146;51.114;5.654;2022-09-09T11:03:18;6.57;;;1.10;;
40433;SDS011;26146;51.114;5.654;2022-09-09T11:07:39;7.65;;;1.00;;
40433;SDS011;26146;51.114;5.654;2022-09-09T11:11:55;5.18;;;0.90;;
40433;SDS011;26146;51.114;5.654;2022-09-09T11:16:03;9.55;;;1.30;;
40433;SDS011;26146;51.114;5.654;2022-09-09T11:20:13;6.47;;;1.00;;
40433;SDS011;26146;51.114;5.654;2022-09-09T11:24:20;5.85;;;1.20;;
40433;SDS011;26146;51.114;5.654;2022-09-09T11:37:16;4.97;;;0.95;;
40433;SDS011;26146;51.114;5.654;2022-09-09T11:46:36;8.25;;;1.05;;
40433;SDS011;26146;51.114;5.654;2022-09-09T11:50:39;8.60;;;1.38;;
40433;SDS011;26146;51.114;5.654;2022-09-09T11:54:47;5.78;;;0.98;;
40433;SDS011;26146;51.114;5.654;2022-09-09T11:58:59;7.00;;;1.10;;
40433;SDS011;26146;51.114;5.654;2022-09-09T12:03:04;7.17;;;1.13;;
40433;SDS011;26146;51.114;5.654;2022-09-09T12:11:10;7.05;;;1.10;;
40433;SDS011;26146;51.114;5.654;2022-09-09T12:15:27;7.60;;;1.25;;
40433;SDS011;26146;51.114;5.654;2022-09-09T12:19:29;7.25;;;1.15;;
40433;SDS011;26146;51.114;5.654;2022-09-09T12:23:36;6.15;;;0.90;;
40433;SDS011;26146;51.114;5.654;2022-09-09T12:27:50;6.20;;;0.80;;
40433;SDS011;26146;51.114;5.654;2022-09-09T12:32:20;7.38;;;1.25;;
40433;SDS011;26146;51.114;5.654;2022-09-09T12:36:27;6.78;;;1.05;;
40433;SDS011;26146;51.114;5.654;2022-09-09T12:40:33;6.55;;;0.80;;
40433;SDS011;26146;51.114;5.654;2022-09-09T12:44:37;6.25;;;1.00;;
40433;SDS011;26146;51.114;5.654;2022-09-09T12:48:38;5.97;;;0.80;;
40433;SDS011;26146;51.114;5.654;2022-09-09T12:52:44;4.72;;;0.60;;
40433;SDS011;26146;51.114;5.654;2022-09-09T12:56:47;6.75;;;0.93;;
40433;SDS011;26146;51.114;5.654;2022-09-09T13:00:53;6.95;;;1.10;;
40433;SDS011;26146;51.114;5.654;2022-09-09T13:05:05;3.78;;;0.80;;
40433;SDS011;26146;51.114;5.654;2022-09-09T13:09:15;5.97;;;0.80;;
40433;SDS011;26146;51.114;5.654;2022-09-09T13:13:17;5.28;;;0.80;;
40433;SDS011;26146;51.114;5.654;2022-09-09T13:21:39;4.88;;;0.77;;
40433;SDS011;26146;51.114;5.654;2022-09-09T13:25:40;4.43;;;0.90;;
40433;SDS011;26146;51.114;5.654;2022-09-09T13:29:41;6.85;;;1.00;;
40433;SDS011;26146;51.114;5.654;2022-09-09T13:33:55;7.13;;;0.95;;
40433;SDS011;26146;51.114;5.654;2022-09-09T13:37:58;4.40;;;0.80;;
40433;SDS011;26146;51.114;5.654;2022-09-09T13:42:19;5.28;;;0.90;;
40433;SDS011;26146;51.114;5.654;2022-09-09T13:46:36;6.80;;;0.90;;
40433;SDS011;26146;51.114;5.654;2022-09-09T13:50:40;5.03;;;0.75;;
40433;SDS011;26146;51.114;5.654;2022-09-09T13:54:42;5.75;;;0.70;;
40433;SDS011;26146;51.114;5.654;2022-09-09T13:58:43;5.65;;;0.90;;
40433;SDS011;26146;51.114;5.654;2022-09-09T14:02:44;5.60;;;0.77;;
40433;SDS011;26146;51.114;5.654;2022-09-09T14:06:47;5.95;;;0.82;;
40433;SDS011;26146;51.114;5.654;2022-09-09T14:10:49;6.18;;;1.10;;
40433;SDS011;26146;51.114;5.654;2022-09-09T14:14:50;3.97;;;0.70;;
40433;SDS011;26146;51.114;5.654;2022-09-09T14:18:51;5.45;;;0.80;;
40433;SDS011;26146;51.114;5.654;2022-09-09T14:22:52;5.38;;;0.88;;
40433;SDS011;26146;51.114;5.654;2022-09-09T14:26:54;4.45;;;0.70;;
40433;SDS011;26146;51.114;5.654;2022-09-09T14:30:58;4.88;;;0.73;;
40433;SDS011;26146;51.114;5.654;2022-09-09T14:35:01;5.45;;;0.70;;
40433;SDS011;26146;51.114;5.654;2022-09-09T14:39:04;4.78;;;0.73;;
40433;SDS011;26146;51.114;5.654;2022-09-09T14:43:05;6.78;;;0.73;;
40433;SDS011;26146;51.114;5.654;2022-09-09T14:47:06;4.25;;;0.60;;
40433;SDS011;26146;51.114;5.654;2022-09-09T14:55:16;6.80;;;0.68;;
40433;SDS011;26146;51.114;5.654;2022-09-09T14:59:17;4.57;;;0.50;;
40433;SDS011;26146;51.114;5.654;2022-09-09T15:03:18;5.95;;;0.75;;
40433;SDS011;26146;51.114;5.654;2022-09-09T15:07:23;7.47;;;0.90;;
40433;SDS011;26146;51.114;5.654;2022-09-09T15:11:27;4.22;;;0.70;;
40433;SDS011;26146;51.114;5.654;2022-09-09T15:15:30;5.17;;;0.63;;
40433;SDS011;26146;51.114;5.654;2022-09-09T15:19:31;4.60;;;0.80;;
40433;SDS011;26146;51.114;5.654;2022-09-09T15:23:32;4.35;;;0.60;;
40433;SDS011;26146;51.114;5.654;2022-09-09T15:27:34;5.70;;;0.60;;
40433;SDS011;26146;51.114;5.654;2022-09-09T15:31:39;4.60;;;0.70;;
40433;SDS011;26146;51.114;5.654;2022-09-09T15:35:40;4.78;;;0.73;;
40433;SDS011;26146;51.114;5.654;2022-09-09T15:39:41;5.50;;;0.60;;
40433;SDS011;26146;51.114;5.654;2022-09-09T15:43:45;4.68;;;0.68;;
40433;SDS011;26146;51.114;5.654;2022-09-09T15:47:47;6.43;;;0.77;;
40433;SDS011;26146;51.114;5.654;2022-09-09T15:51:53;2.92;;;0.60;;
40433;SDS011;26146;51.114;5.654;2022-09-09T15:55:55;4.40;;;0.57;;
40433;SDS011;26146;51.114;5.654;2022-09-09T15:59:56;4.90;;;0.65;;
40433;SDS011;26146;51.114;5.654;2022-09-09T16:04:00;4.40;;;0.70;;
40433;SDS011;26146;51.114;5.654;2022-09-09T16:08:01;3.35;;;0.55;;
40433;SDS011;26146;51.114;5.654;2022-09-09T16:12:03;5.85;;;0.60;;
40433;SDS011;26146;51.114;5.654;2022-09-09T16:16:12;4.60;;;0.70;;
40433;SDS011;26146;51.114;5.654;2022-09-09T16:20:14;4.05;;;0.63;;
40433;SDS011;26146;51.114;5.654;2022-09-09T16:24:16;5.47;;;0.93;;
40433;SDS011;26146;51.114;5.654;2022-09-09T16:28:20;3.70;;;0.68;;
40433;SDS011;26146;51.114;5.654;2022-09-09T16:32:21;4.18;;;0.75;;
40433;SDS011;26146;51.114;5.654;2022-09-09T16:36:23;6.45;;;1.00;;
40433;SDS011;26146;51.114;5.654;2022-09-09T16:40:25;5.25;;;1.17;;
40433;SDS011;26146;51.114;5.654;2022-09-09T16:44:26;4.57;;;0.70;;
40433;SDS011;26146;51.114;5.654;2022-09-09T16:48:31;5.60;;;0.80;;
40433;SDS011;26146;51.114;5.654;2022-09-09T16:52:36;5.13;;;0.90;;
40433;SDS011;26146;51.114;5.654;2022-09-09T16:56:38;5.05;;;0.93;;
40433;SDS011;26146;51.114;5.654;2022-09-09T17:00:43;4.35;;;0.90;;
40433;SDS011;26146;51.114;5.654;2022-09-09T17:04:46;5.70;;;1.00;;
40433;SDS011;26146;51.114;5.654;2022-09-09T17:08:47;6.80;;;1.00;;
40433;SDS011;26146;51.114;5.654;2022-09-09T17:12:53;3.42;;;0.50;;
40433;SDS011;26146;51.114;5.654;2022-09-09T17:16:54;2.55;;;0.20;;
40433;SDS011;26146;51.114;5.654;2022-09-09T17:21:02;2.47;;;0.30;;
40433;SDS011;26146;51.114;5.654;2022-09-09T17:25:08;2.25;;;0.38;;
40433;SDS011;26146;51.114;5.654;2022-09-09T17:29:09;1.95;;;0.20;;
40433;SDS011;26146;51.114;5.654;2022-09-09T17:33:11;2.72;;;0.30;;
40433;SDS011;26146;51.114;5.654;2022-09-09T17:37:12;2.22;;;0.32;;
40433;SDS011;26146;51.114;5.654;2022-09-09T17:41:15;4.15;;;0.50;;
40433;SDS011;26146;51.114;5.654;2022-09-09T17:45:20;2.97;;;0.43;;
40433;SDS011;26146;51.114;5.654;2022-09-09T17:49:21;7.63;;;1.20;;
40433;SDS011;26146;51.114;5.654;2022-09-09T17:53:22;8.40;;;1.13;;
40433;SDS011;26146;51.114;5.654;2022-09-09T17:57:23;6.43;;;0.88;;
40433;SDS011;26146;51.114;5.654;2022-09-09T18:01:26;3.72;;;0.50;;
40433;SDS011;26146;51.114;5.654;2022-09-09T18:05:30;4.95;;;1.00;;
40433;SDS011;26146;51.114;5.654;2022-09-09T18:09:31;5.28;;;0.73;;
40433;SDS011;26146;51.114;5.654;2022-09-09T18:13:32;4.88;;;0.90;;
40433;SDS011;26146;51.114;5.654;2022-09-09T18:17:33;5.57;;;1.00;;
40433;SDS011;26146;51.114;5.654;2022-09-09T18:21:34;4.50;;;1.00;;
40433;SDS011;26146;51.114;5.654;2022-09-09T18:25:40;4.55;;;0.82;;
40433;SDS011;26146;51.114;5.654;2022-09-09T18:29:41;3.45;;;0.63;;
40433;SDS011;26146;51.114;5.654;2022-09-09T18:33:43;5.25;;;0.73;;
40433;SDS011;26146;51.114;5.654;2022-09-09T18:37:46;4.55;;;0.88;;
40433;SDS011;26146;51.114;5.654;2022-09-09T18:41:48;3.85;;;1.05;;
40433;SDS011;26146;51.114;5.654;2022-09-09T18:45:51;4.73;;;0.90;;
40433;SDS011;26146;51.114;5.654;2022-09-09T18:49:52;4.65;;;0.80;;
40433;SDS011;26146;51.114;5.654;2022-09-09T18:53:54;4.38;;;0.90;;
40433;SDS011;26146;51.114;5.654;2022-09-09T18:58:00;5.05;;;0.82;;
40433;SDS011;26146;51.114;5.654;2022-09-09T19:02:02;3.58;;;0.80;;
40433;SDS011;26146;51.114;5.654;2022-09-09T19:06:08;4.78;;;1.05;;
40433;SDS011;26146;51.114;5.654;2022-09-09T19:10:11;6.35;;;1.30;;
40433;SDS011;26146;51.114;5.654;2022-09-09T19:14:14;4.85;;;0.90;;
40433;SDS011;26146;51.114;5.654;2022-09-09T19:18:16;4.65;;;0.82;;
40433;SDS011;26146;51.114;5.654;2022-09-09T19:22:17;7.78;;;1.67;;
40433;SDS011;26146;51.114;5.654;2022-09-09T19:26:18;5.88;;;1.00;;
40433;SDS011;26146;51.114;5.654;2022-09-09T19:30:19;5.50;;;1.15;;
40433;SDS011;26146;51.114;5.654;2022-09-09T19:34:21;5.25;;;1.17;;
40433;SDS011;26146;51.114;5.654;2022-09-09T19:38:22;5.50;;;1.27;;
40433;SDS011;26146;51.114;5.654;2022-09-09T19:42:23;6.78;;;1.23;;
40433;SDS011;26146;51.114;5.654;2022-09-09T19:46:24;6.65;;;1.25;;
40433;SDS011;26146;51.114;5.654;2022-09-09T19:50:26;7.05;;;1.38;;
40433;SDS011;26146;51.114;5.654;2022-09-09T19:54:28;7.00;;;1.30;;
40433;SDS011;26146;51.114;5.654;2022-09-09T19:58:29;6.40;;;1.20;;
40433;SDS011;26146;51.114;5.654;2022-09-09T20:02:36;7.72;;;1.40;;
40433;SDS011;26146;51.114;5.654;2022-09-09T20:06:37;6.78;;;1.30;;
40433;SDS011;26146;51.114;5.654;2022-09-09T20:10:48;8.18;;;1.50;;
40433;SDS011;26146;51.114;5.654;2022-09-09T20:14:50;7.13;;;1.25;;
40433;SDS011;26146;51.114;5.654;2022-09-09T20:18:55;6.90;;;1.40;;
40433;SDS011;26146;51.114;5.654;2022-09-09T20:22:57;6.97;;;1.70;;
40433;SDS011;26146;51.114;5.654;2022-09-09T20:26:58;7.10;;;1.38;;
40433;SDS011;26146;51.114;5.654;2022-09-09T20:31:06;8.50;;;1.60;;
40433;SDS011;26146;51.114;5.654;2022-09-09T20:35:13;10.63;;;1.88;;
40433;SDS011;26146;51.114;5.654;2022-09-09T20:39:15;7.95;;;1.90;;
40433;SDS011;26146;51.114;5.654;2022-09-09T20:43:19;8.13;;;2.00;;
40433;SDS011;26146;51.114;5.654;2022-09-09T20:47:20;8.13;;;1.73;;
40433;SDS011;26146;51.114;5.654;2022-09-09T20:51:22;5.65;;;1.75;;
40433;SDS011;26146;51.114;5.654;2022-09-09T20:55:23;8.95;;;1.73;;
40433;SDS011;26146;51.114;5.654;2022-09-09T20:59:28;10.10;;;1.73;;
40433;SDS011;26146;51.114;5.654;2022-09-09T21:03:34;6.95;;;1.67;;
40433;SDS011;26146;51.114;5.654;2022-09-09T21:11:40;7.65;;;1.75;;
40433;SDS011;26146;51.114;5.654;2022-09-09T21:15:43;7.30;;;1.90;;
40433;SDS011;26146;51.114;5.654;2022-09-09T21:19:45;7.95;;;1.95;;
40433;SDS011;26146;51.114;5.654;2022-09-09T21:23:46;9.05;;;1.80;;
40433;SDS011;26146;51.114;5.654;2022-09-09T21:27:48;6.90;;;1.65;;
40433;SDS011;26146;51.114;5.654;2022-09-09T21:31:49;11.27;;;1.75;;
40433;SDS011;26146;51.114;5.654;2022-09-09T21:35:49;7.75;;;1.80;;
40433;SDS011;26146;51.114;5.654;2022-09-09T21:39:50;6.43;;;1.50;;
40433;SDS011;26146;51.114;5.654;2022-09-09T21:43:52;7.15;;;1.30;;
40433;SDS011;26146;51.114;5.654;2022-09-09T21:47:53;8.00;;;1.00;;
40433;SDS011;26146;51.114;5.654;2022-09-09T21:51:54;7.18;;;0.82;;
40433;SDS011;26146;51.114;5.654;2022-09-09T21:56:04;6.28;;;0.80;;
40433;SDS011;26146;51.114;5.654;2022-09-09T22:00:07;6.70;;;0.80;;
40433;SDS011;26146;51.114;5.654;2022-09-09T22:04:11;7.03;;;0.80;;
40433;SDS011;26146;51.114;5.654;2022-09-09T22:08:13;5.68;;;0.98;;
40433;SDS011;26146;51.114;5.654;2022-09-09T22:12:15;5.47;;;0.80;;
40433;SDS011;26146;51.114;5.654;2022-09-09T22:16:17;4.82;;;0.70;;
40433;SDS011;26146;51.114;5.654;2022-09-09T22:20:19;7.20;;;2.10;;
40433;SDS011;26146;51.114;5.654;2022-09-09T22:24:20;6.10;;;1.13;;
40433;SDS011;26146;51.114;5.654;2022-09-09T22:28:21;5.10;;;1.00;;
40433;SDS011;26146;51.114;5.654;2022-09-09T22:32:22;6.53;;;1.00;;
40433;SDS011;26146;51.114;5.654;2022-09-09T22:36:23;6.25;;;1.08;;
40433;SDS011;26146;51.114;5.654;2022-09-09T22:40:25;6.90;;;1.02;;
40433;SDS011;26146;51.114;5.654;2022-09-09T22:44:26;7.10;;;1.35;;
40433;SDS011;26146;51.114;5.654;2022-09-09T22:48:31;6.18;;;1.20;;
40433;SDS011;26146;51.114;5.654;2022-09-09T22:56:33;8.48;;;1.17;;
40433;SDS011;26146;51.114;5.654;2022-09-09T23:00:34;8.35;;;1.50;;
40433;SDS011;26146;51.114;5.654;2022-09-09T23:04:39;6.22;;;1.20;;
40433;SDS011;26146;51.114;5.654;2022-09-09T23:08:40;7.60;;;1.38;;
40433;SDS011;26146;51.114;5.654;2022-09-09T23:12:41;8.85;;;1.40;;
40433;SDS011;26146;51.114;5.654;2022-09-09T23:16:42;9.25;;;1.67;;
40433;SDS011;26146;51.114;5.654;2022-09-09T23:20:54;8.82;;;1.60;;
40433;SDS011;26146;51.114;5.654;2022-09-09T23:25:00;6.43;;;1.60;;
40433;SDS011;26146;51.114;5.654;2022-09-09T23:29:02;8.07;;;1.70;;
40433;SDS011;26146;51.114;5.654;2022-09-09T23:33:05;9.02;;;1.63;;
40433;SDS011;26146;51.114;5.654;2022-09-09T23:37:06;7.15;;;1.60;;
40433;SDS011;26146;51.114;5.654;2022-09-09T23:41:11;11.73;;;2.25;;
40433;SDS011;26146;51.114;5.654;2022-09-09T23:45:14;8.05;;;1.98;;
40433;SDS011;26146;51.114;5.654;2022-09-09T23:49:17;7.53;;;2.30;;
40433;SDS011;26146;51.114;5.654;2022-09-09T23:53:18;8.27;;;2.45;;
40433;SDS011;26146;51.114;5.654;2022-09-09T23:57:19;7.82;;;2.30;;
